Terminal Aerodrome Forecast
Issued by NWS Charleston, SC

Home | Current Version | Previous Version | Text Only | Print | Product List | Glossary On
Versions: 1 2 3 4 5 6 7 8 9 10 11 12 13 14
812
FTUS42 KCHS 221122
TAFCHS
TAF
KCHS 221122Z 2212/2312 07009KT P6SM SCT035 BKN080
     FM221500 11011G17KT P6SM BKN040
     FM221800 12015G22KT P6SM BKN040
     FM230000 10011KT P6SM SCT035 OVC060
     FM231000 10012KT 6SM -SHRA SCT015 OVC035=

USA.gov is the U.S. government's official web portal to all federal, state and local government web resources and services.